Time;durP1;ratioP1;P1;durP2;ratioP2;P2;SDS_P1;SDS_P2;PMS_P1;PMS_P2;Temp;Humidity;BMP_temperature;BMP_pressure;BME280_temperature;BME280_humidity;BME280_pressure;Samples;Min_cycle;Max_cycle;Signal;HPM_P1;HPM_P2
2022/09/27 00:01:36;;;;;;;;;2.00;2.00;;;;;;;;5048711;28;45276;-72
2022/09/27 00:04:01;;;;;;;;;1.00;1.00;;;;;;;;5057496;28;45217;-72
2022/09/27 00:06:28;;;;;;;;;1.50;1.50;;;;;;;;5057238;28;46588;-72
2022/09/27 00:08:54;;;;;;;;;3.75;1.75;;;;;;;;5050353;28;45354;-72
2022/09/27 00:11:19;;;;;;;;;2.50;1.50;;;;;;;;5057946;28;45505;-72
2022/09/27 00:13:44;;;;;;;;;2.00;2.00;;;;;;;;5051565;28;45463;-72
2022/09/27 00:16:09;;;;;;;;;2.00;1.00;;;;;;;;5057753;28;45512;-73
2022/09/27 00:18:35;;;;;;;;;1.75;1.75;;;;;;;;5049421;28;45590;-73
2022/09/27 00:21:04;;;;;;;;;3.00;3.00;;;;;;;;5060109;28;45624;-73
2022/09/27 00:23:29;;;;;;;;;2.00;2.00;;;;;;;;5045422;28;45347;-73
2022/09/27 00:25:57;;;;;;;;;4.25;2.00;;;;;;;;5046249;28;45380;-73
2022/09/27 00:28:23;;;;;;;;;3.50;2.00;;;;;;;;5049493;28;45220;-72
2022/09/27 00:30:49;;;;;;;;;1.50;1.50;;;;;;;;5058529;28;45368;-72
2022/09/27 00:33:14;;;;;;;;;1.50;1.00;;;;;;;;5054186;28;45813;-72
2022/09/27 00:35:39;;;;;;;;;2.00;2.00;;;;;;;;5056308;28;45431;-72
2022/09/27 00:38:05;;;;;;;;;2.25;1.50;;;;;;;;5056027;28;45435;-72
2022/09/27 00:40:31;;;;;;;;;3.00;2.00;;;;;;;;5055781;28;45329;-72
2022/09/27 00:42:56;;;;;;;;;2.25;2.25;;;;;;;;5054028;28;45593;-72
2022/09/27 00:45:22;;;;;;;;;3.75;2.75;;;;;;;;5051920;28;46236;-73
2022/09/27 00:48:03;;;;;;;;;4.00;4.00;;;;;;;;5048913;28;45050;-72
2022/09/27 00:50:31;;;;;;;;;2.25;2.25;;;;;;;;5045168;28;45299;-72
2022/09/27 00:52:56;;;;;;;;;6.25;2.00;;;;;;;;5047445;28;45293;-72
2022/09/27 00:55:28;;;;;;;;;3.00;3.00;;;;;;;;5061774;28;47209;-73
2022/09/27 00:57:53;;;;;;;;;7.50;3.00;;;;;;;;5063065;28;45262;-74
2022/09/27 01:00:20;;;;;;;;;1.75;1.75;;;;;;;;5054901;28;45286;-72
2022/09/27 01:02:48;;;;;;;;;4.25;2.50;;;;;;;;5050369;28;45609;-73
2022/09/27 01:05:15;;;;;;;;;3.25;2.00;;;;;;;;5053250;28;45360;-73
2022/09/27 01:07:41;;;;;;;;;3.00;3.00;;;;;;;;5052938;28;45382;-73
2022/09/27 01:10:07;;;;;;;;;2.75;2.75;;;;;;;;5055651;28;45379;-72
2022/09/27 01:12:32;;;;;;;;;4.75;2.75;;;;;;;;5055432;28;45505;-72
2022/09/27 01:15:04;;;;;;;;;2.75;2.75;;;;;;;;5054769;28;45334;-72
2022/09/27 01:17:48;;;;;;;;;3.00;3.00;;;;;;;;5051702;28;45266;-72
2022/09/27 01:20:34;;;;;;;;;6.50;3.50;;;;;;;;5071994;28;45237;-73
2022/09/27 01:23:18;;;;;;;;;7.00;2.25;;;;;;;;5047367;28;45030;-72
2022/09/27 01:25:43;;;;;;;;;2.25;2.25;;;;;;;;5048963;28;45433;-73
2022/09/27 01:28:27;;;;;;;;;2.00;2.00;;;;;;;;5066838;28;45512;-73
2022/09/27 01:31:03;;;;;;;;;3.75;3.00;;;;;;;;5055087;28;45411;-73
2022/09/27 01:33:35;;;;;;;;;2.00;2.00;;;;;;;;5055346;28;45511;-72
2022/09/27 01:36:13;;;;;;;;;7.00;2.50;;;;;;;;5051791;28;45319;-72
2022/09/27 01:38:41;;;;;;;;;2.00;2.00;;;;;;;;5056200;28;45378;-72
2022/09/27 01:41:23;;;;;;;;;3.00;2.00;;;;;;;;5055011;28;45473;-73
2022/09/27 01:43:54;;;;;;;;;1.25;1.25;;;;;;;;5048203;28;45339;-73
2022/09/27 01:46:26;;;;;;;;;2.50;1.75;;;;;;;;5052496;28;45394;-73
2022/09/27 01:48:53;;;;;;;;;2.75;2.00;;;;;;;;5045263;28;45268;-73
2022/09/27 01:51:41;;;;;;;;;3.00;1.00;;;;;;;;5042736;28;45371;-73
2022/09/27 01:54:08;;;;;;;;;1.75;1.75;;;;;;;;5045935;27;45520;-72
2022/09/27 01:56:34;;;;;;;;;4.75;2.00;;;;;;;;5057049;28;46298;-72
2022/09/27 01:59:08;;;;;;;;;2.25;1.00;;;;;;;;5051590;28;45777;-72
2022/09/27 02:01:35;;;;;;;;;1.00;1.00;;;;;;;;5050320;28;45262;-72
2022/09/27 02:04:01;;;;;;;;;0.75;0.75;;;;;;;;5051455;28;45244;-72
2022/09/27 02:06:29;;;;;;;;;2.00;1.25;;;;;;;;5045613;28;45170;-72
2022/09/27 02:09:10;;;;;;;;;0.50;0.50;;;;;;;;5053508;28;45371;-72
2022/09/27 02:11:37;;;;;;;;;2.00;1.00;;;;;;;;5052591;28;45257;-73
2022/09/27 02:14:07;;;;;;;;;2.00;2.00;;;;;;;;5051604;28;45230;-73
2022/09/27 02:16:44;;;;;;;;;1.50;1.00;;;;;;;;5052294;28;46348;-73
2022/09/27 02:19:28;;;;;;;;;2.00;1.75;;;;;;;;5051649;28;45450;-73
2022/09/27 02:22:02;;;;;;;;;1.00;1.00;;;;;;;;5056764;28;45319;-73
2022/09/27 02:24:32;;;;;;;;;0.25;0.25;;;;;;;;5048998;28;45652;-73
2022/09/27 02:27:20;;;;;;;;;1.50;1.00;;;;;;;;5039000;28;46486;-73
2022/09/27 02:29:50;;;;;;;;;2.00;2.00;;;;;;;;5054995;28;45380;-73
2022/09/27 02:32:15;;;;;;;;;1.75;1.75;;;;;;;;5043361;28;45265;-72
2022/09/27 02:34:42;;;;;;;;;2.00;1.50;;;;;;;;5052404;28;45365;-73
2022/09/27 02:37:07;;;;;;;;;1.50;1.25;;;;;;;;5044462;28;45437;-73
2022/09/27 02:39:33;;;;;;;;;1.75;1.75;;;;;;;;5048734;28;45148;-72
2022/09/27 02:41:58;;;;;;;;;1.50;1.00;;;;;;;;5054245;28;45279;-72
2022/09/27 02:44:25;;;;;;;;;1.50;1.50;;;;;;;;5052123;28;45523;-72
2022/09/27 02:46:53;;;;;;;;;2.00;1.00;;;;;;;;5058121;28;45368;-72
2022/09/27 02:49:19;;;;;;;;;1.50;1.00;;;;;;;;5054292;28;45474;-72
2022/09/27 02:51:44;;;;;;;;;4.00;1.00;;;;;;;;5059395;28;45355;-72
2022/09/27 02:54:09;;;;;;;;;2.50;2.50;;;;;;;;5056466;28;45513;-72
2022/09/27 02:56:53;;;;;;;;;2.00;1.00;;;;;;;;5057414;28;46171;-72
2022/09/27 02:59:37;;;;;;;;;2.00;1.00;;;;;;;;5053462;28;45327;-72
2022/09/27 03:02:08;;;;;;;;;0.50;0.50;;;;;;;;5058505;28;45496;-72
2022/09/27 03:04:40;;;;;;;;;1.00;1.00;;;;;;;;5050614;28;45237;-72
2022/09/27 03:07:05;;;;;;;;;3.00;1.00;;;;;;;;5050972;28;46098;-72
2022/09/27 03:09:47;;;;;;;;;1.00;1.00;;;;;;;;5055431;28;45255;-73
2022/09/27 03:12:13;;;;;;;;;2.50;0.75;;;;;;;;5057960;28;45455;-73
2022/09/27 03:14:39;;;;;;;;;1.75;1.75;;;;;;;;5053982;28;45304;-73
2022/09/27 03:17:04;;;;;;;;;0.00;0.00;;;;;;;;5057192;28;45311;-75
2022/09/27 03:19:29;;;;;;;;;2.50;1.00;;;;;;;;5055414;28;45372;-75
2022/09/27 03:21:54;;;;;;;;;3.00;1.00;;;;;;;;5059561;28;45209;-76
2022/09/27 03:24:20;;;;;;;;;1.75;1.75;;;;;;;;5052134;28;45233;-75
2022/09/27 03:26:45;;;;;;;;;2.00;2.00;;;;;;;;5062210;28;45377;-75
2022/09/27 03:29:11;;;;;;;;;2.00;1.00;;;;;;;;5048839;28;45569;-75
2022/09/27 03:31:36;;;;;;;;;4.00;1.00;;;;;;;;5049518;28;45391;-74
2022/09/27 03:34:01;;;;;;;;;2.00;1.00;;;;;;;;5051097;28;45311;-74
2022/09/27 03:36:26;;;;;;;;;4.00;1.75;;;;;;;;5052836;28;45236;-74
2022/09/27 03:38:51;;;;;;;;;4.00;1.75;;;;;;;;5062875;28;45392;-74
2022/09/27 03:41:17;;;;;;;;;3.75;1.25;;;;;;;;5053509;28;45181;-74
2022/09/27 03:43:42;;;;;;;;;1.00;1.00;;;;;;;;5049586;28;45361;-74
2022/09/27 03:46:07;;;;;;;;;1.00;1.00;;;;;;;;5074599;28;45711;-73
2022/09/27 03:48:32;;;;;;;;;4.25;2.00;;;;;;;;5051580;28;45336;-72
2022/09/27 03:50:57;;;;;;;;;3.00;2.00;;;;;;;;5074202;28;45422;-73
2022/09/27 03:53:23;;;;;;;;;1.75;1.00;;;;;;;;5068044;28;45572;-73
2022/09/27 03:55:48;;;;;;;;;1.75;0.50;;;;;;;;5057751;28;45351;-73
2022/09/27 03:58:14;;;;;;;;;3.00;2.00;;;;;;;;5053870;28;45170;-73
2022/09/27 04:00:40;;;;;;;;;1.00;1.00;;;;;;;;5055756;28;45346;-73
2022/09/27 04:03:05;;;;;;;;;2.00;2.00;;;;;;;;5054835;28;45315;-73
2022/09/27 04:05:31;;;;;;;;;1.00;1.00;;;;;;;;5048154;28;46098;-73
2022/09/27 04:07:56;;;;;;;;;3.75;1.00;;;;;;;;5047985;27;45553;-73
2022/09/27 04:10:22;;;;;;;;;1.75;1.25;;;;;;;;5057213;28;45448;-73
2022/09/27 04:12:47;;;;;;;;;2.25;1.25;;;;;;;;5050216;28;45536;-73
2022/09/27 04:15:12;;;;;;;;;2.25;1.00;;;;;;;;5085746;27;47534;-73
2022/09/27 04:17:40;;;;;;;;;2.00;1.00;;;;;;;;5051367;28;45366;-73
2022/09/27 04:20:05;;;;;;;;;2.50;1.00;;;;;;;;5054228;28;45268;-73
2022/09/27 04:22:31;;;;;;;;;1.50;1.00;;;;;;;;5054301;28;45459;-74
2022/09/27 04:24:57;;;;;;;;;3.50;1.00;;;;;;;;5059388;28;47053;-73
2022/09/27 04:27:22;;;;;;;;;2.00;1.00;;;;;;;;5053981;27;45256;-73
2022/09/27 04:29:47;;;;;;;;;1.25;1.25;;;;;;;;5053212;28;45227;-73
2022/09/27 04:32:12;;;;;;;;;1.00;1.00;;;;;;;;5054388;28;45453;-73
2022/09/27 04:37:21;;;;;;;;;1.75;1.75;;;;;;;;5052780;28;45493;-73
2022/09/27 04:39:48;;;;;;;;;1.00;1.00;;;;;;;;5085301;27;45204;-74
2022/09/27 04:42:13;;;;;;;;;4.00;0.25;;;;;;;;5055531;28;45306;-74
2022/09/27 04:44:38;;;;;;;;;5.00;2.00;;;;;;;;5066213;28;47747;-74
2022/09/27 04:47:03;;;;;;;;;2.00;1.00;;;;;;;;5046887;28;45352;-73
2022/09/27 04:49:29;;;;;;;;;1.00;1.00;;;;;;;;5049329;28;45179;-73
2022/09/27 04:51:55;;;;;;;;;2.00;1.00;;;;;;;;5048911;28;45195;-74
2022/09/27 04:54:20;;;;;;;;;1.00;1.00;;;;;;;;5051083;28;46234;-74
2022/09/27 04:56:47;;;;;;;;;2.75;2.00;;;;;;;;5057396;28;45449;-74
2022/09/27 04:59:12;;;;;;;;;2.00;1.00;;;;;;;;5048064;28;45328;-73
2022/09/27 05:01:38;;;;;;;;;2.00;2.00;;;;;;;;5052267;28;45284;-73
2022/09/27 05:04:03;;;;;;;;;1.00;0.00;;;;;;;;5051239;28;45355;-74
2022/09/27 05:06:29;;;;;;;;;1.00;1.00;;;;;;;;5047402;28;45295;-77
2022/09/27 05:08:54;;;;;;;;;1.00;1.00;;;;;;;;5045354;28;45454;-76
2022/09/27 05:11:21;;;;;;;;;2.75;1.00;;;;;;;;5051183;28;45735;-77
2022/09/27 05:13:46;;;;;;;;;1.75;1.75;;;;;;;;5049100;28;45410;-76
2022/09/27 05:16:11;;;;;;;;;4.00;1.25;;;;;;;;5053130;28;45240;-77
2022/09/27 05:18:37;;;;;;;;;2.00;1.50;;;;;;;;5051408;28;45334;-76
2022/09/27 05:21:02;;;;;;;;;6.00;1.50;;;;;;;;5053144;28;45245;-76
2022/09/27 05:23:27;;;;;;;;;3.75;2.00;;;;;;;;5051509;28;46192;-73
2022/09/27 05:25:55;;;;;;;;;1.75;1.00;;;;;;;;5056233;28;45238;-75
2022/09/27 05:28:20;;;;;;;;;2.50;2.00;;;;;;;;5053330;28;45497;-75
2022/09/27 05:30:45;;;;;;;;;0.00;0.00;;;;;;;;5058361;28;45709;-74
2022/09/27 05:33:11;;;;;;;;;2.00;1.00;;;;;;;;5087120;27;46718;-74
2022/09/27 05:35:36;;;;;;;;;1.50;1.50;;;;;;;;5058632;28;45326;-74
2022/09/27 05:38:01;;;;;;;;;2.25;1.00;;;;;;;;5055530;28;45726;-74
2022/09/27 05:40:28;;;;;;;;;0.75;0.75;;;;;;;;5039421;28;45509;-73
2022/09/27 05:42:53;;;;;;;;;1.00;1.00;;;;;;;;5042675;28;45322;-75
2022/09/27 05:45:19;;;;;;;;;2.50;2.00;;;;;;;;5048872;28;45333;-74
2022/09/27 05:47:54;;;;;;;;;3.25;1.00;;;;;;;;5045146;28;45422;-74
2022/09/27 05:50:19;;;;;;;;;2.00;2.00;;;;;;;;5049871;28;45695;-74
2022/09/27 05:52:45;;;;;;;;;3.00;1.25;;;;;;;;5046823;28;45399;-74
2022/09/27 05:55:10;;;;;;;;;1.00;1.00;;;;;;;;5050756;28;45218;-73
2022/09/27 05:57:35;;;;;;;;;1.00;1.00;;;;;;;;5048105;28;45253;-73
2022/09/27 06:00:00;;;;;;;;;5.50;2.75;;;;;;;;5054414;28;45420;-73
2022/09/27 06:02:26;;;;;;;;;3.00;1.25;;;;;;;;5056780;28;46195;-74
2022/09/27 06:04:51;;;;;;;;;4.25;2.25;;;;;;;;5055618;28;45242;-74
2022/09/27 06:07:16;;;;;;;;;1.00;1.00;;;;;;;;5053190;28;45252;-74
2022/09/27 06:09:43;;;;;;;;;3.00;2.00;;;;;;;;5054809;28;47085;-74
2022/09/27 06:12:10;;;;;;;;;3.00;1.50;;;;;;;;5048240;28;46158;-74
2022/09/27 06:14:36;;;;;;;;;1.25;1.25;;;;;;;;5054948;28;45876;-74
2022/09/27 06:17:02;;;;;;;;;2.25;2.00;;;;;;;;5058446;28;45328;-76
2022/09/27 06:19:27;;;;;;;;;2.00;2.00;;;;;;;;5056478;28;45392;-73
2022/09/27 06:21:52;;;;;;;;;2.00;2.00;;;;;;;;5055908;28;46303;-73
2022/09/27 06:24:17;;;;;;;;;2.00;2.00;;;;;;;;5053965;28;45337;-75
2022/09/27 06:26:44;;;;;;;;;1.00;1.00;;;;;;;;5058421;28;45295;-73
2022/09/27 06:29:09;;;;;;;;;1.75;1.50;;;;;;;;5056938;28;45289;-74
2022/09/27 06:31:34;;;;;;;;;3.50;2.00;;;;;;;;5059474;28;45989;-74
2022/09/27 06:34:00;;;;;;;;;5.25;4.00;;;;;;;;5059180;28;45405;-74
2022/09/27 06:36:25;;;;;;;;;3.75;2.00;;;;;;;;5059623;28;45456;-73
2022/09/27 06:38:50;;;;;;;;;2.25;2.25;;;;;;;;5054241;28;45271;-73
2022/09/27 06:41:15;;;;;;;;;2.25;2.25;;;;;;;;5059743;28;46099;-73
2022/09/27 06:43:41;;;;;;;;;1.00;1.00;;;;;;;;5054297;27;45228;-73
2022/09/27 06:46:06;;;;;;;;;1.50;1.50;;;;;;;;5055062;28;45498;-74
2022/09/27 06:48:31;;;;;;;;;2.00;2.00;;;;;;;;5048427;28;45206;-73
2022/09/27 06:50:57;;;;;;;;;8.00;5.75;;;;;;;;5056204;28;45205;-74
2022/09/27 06:53:23;;;;;;;;;3.00;1.00;;;;;;;;5046538;28;45435;-73
2022/09/27 06:55:50;;;;;;;;;2.00;2.00;;;;;;;;5058780;28;45179;-73
2022/09/27 07:01:00;;;;;;;;;2.00;2.00;;;;;;;;5046755;28;45417;-73
2022/09/27 07:03:30;;;;;;;;;1.25;1.25;;;;;;;;5051912;28;45520;-72
2022/09/27 07:05:56;;;;;;;;;2.75;2.75;;;;;;;;5057593;28;45322;-73
2022/09/27 07:08:21;;;;;;;;;5.50;2.00;;;;;;;;5047766;28;45545;-72
2022/09/27 07:10:46;;;;;;;;;4.00;2.75;;;;;;;;5058393;28;46086;-72
2022/09/27 07:13:11;;;;;;;;;4.33;1.00;;;;;;;;5053527;28;45232;-73
2022/09/27 07:15:39;;;;;;;;;4.50;1.00;;;;;;;;5057835;28;45204;-73
2022/09/27 07:18:05;;;;;;;;;2.25;2.25;;;;;;;;5050510;28;45336;-73
2022/09/27 07:20:31;;;;;;;;;2.00;2.00;;;;;;;;5051399;28;45684;-73
2022/09/27 07:22:57;;;;;;;;;1.33;1.33;;;;;;;;5054062;28;45300;-73
2022/09/27 07:25:22;;;;;;;;;3.00;2.67;;;;;;;;5050331;28;45383;-73
2022/09/27 07:27:48;;;;;;;;;3.75;2.00;;;;;;;;5050534;28;45540;-73
2022/09/27 07:30:15;;;;;;;;;3.00;3.00;;;;;;;;5046613;28;46976;-73
2022/09/27 07:32:40;;;;;;;;;1.00;1.00;;;;;;;;5048569;28;45482;-73
2022/09/27 07:35:07;;;;;;;;;3.00;1.00;;;;;;;;5054662;28;45288;-73
2022/09/27 07:37:34;;;;;;;;;1.67;1.00;;;;;;;;5049413;28;45599;-72
2022/09/27 07:40:00;;;;;;;;;2.00;2.00;;;;;;;;5051681;28;45508;-73
2022/09/27 07:42:27;;;;;;;;;1.00;1.00;;;;;;;;5050453;28;45473;-73
2022/09/27 07:44:52;;;;;;;;;3.00;2.00;;;;;;;;5064960;28;45341;-73
2022/09/27 07:47:18;;;;;;;;;5.33;4.33;;;;;;;;5054950;28;45384;-73
2022/09/27 07:49:43;;;;;;;;;1.00;1.00;;;;;;;;5053232;28;45295;-73
2022/09/27 07:52:09;;;;;;;;;3.00;1.00;;;;;;;;5057852;28;45291;-72
2022/09/27 07:54:34;;;;;;;;;2.00;1.00;;;;;;;;5059341;28;45339;-72
2022/09/27 07:57:01;;;;;;;;;2.00;2.00;;;;;;;;5059247;28;45257;-73
2022/09/27 07:59:26;;;;;;;;;2.00;2.00;;;;;;;;5054076;28;45359;-73
2022/09/27 08:01:52;;;;;;;;;1.00;1.00;;;;;;;;5052655;28;45317;-73
2022/09/27 08:04:17;;;;;;;;;5.33;3.00;;;;;;;;5053269;28;45391;-72
2022/09/27 08:06:42;;;;;;;;;3.00;2.00;;;;;;;;5056141;28;45429;-72
2022/09/27 08:09:10;;;;;;;;;2.00;2.00;;;;;;;;5052870;28;46095;-72
2022/09/27 08:11:36;;;;;;;;;2.67;1.00;;;;;;;;5044530;28;45407;-72
2022/09/27 08:14:03;;;;;;;;;2.33;1.33;;;;;;;;5043553;28;45422;-71
2022/09/27 08:16:28;;;;;;;;;2.67;2.00;;;;;;;;5047547;28;45343;-72
2022/09/27 08:18:53;;;;;;;;;8.33;6.00;;;;;;;;5053602;28;45453;-72
2022/09/27 08:21:18;;;;;;;;;4.67;3.00;;;;;;;;5088964;27;45903;-73
2022/09/27 08:23:43;;;;;;;;;3.00;2.00;;;;;;;;5056140;28;45301;-72
2022/09/27 08:26:09;;;;;;;;;1.00;1.00;;;;;;;;5054241;28;45560;-71
2022/09/27 08:28:34;;;;;;;;;2.67;2.33;;;;;;;;5056267;28;45378;-72
2022/09/27 08:30:59;;;;;;;;;2.00;2.00;;;;;;;;5056567;28;45420;-72
2022/09/27 08:33:25;;;;;;;;;2.33;2.33;;;;;;;;5048856;28;45437;-72
2022/09/27 08:35:51;;;;;;;;;2.33;1.67;;;;;;;;5049803;28;45229;-72
2022/09/27 08:38:16;;;;;;;;;2.00;2.00;;;;;;;;5051193;28;46340;-72
2022/09/27 08:40:45;;;;;;;;;3.00;2.00;;;;;;;;5051922;28;45275;-72
2022/09/27 08:43:17;;;;;;;;;3.00;1.33;;;;;;;;5052876;28;45612;-72
2022/09/27 08:46:03;;;;;;;;;1.00;0.00;;;;;;;;5050659;28;45165;-73
2022/09/27 08:48:28;;;;;;;;;2.33;2.33;;;;;;;;5050271;28;45395;-72
2022/09/27 08:50:55;;;;;;;;;1.67;1.67;;;;;;;;5055344;28;45318;-73
2022/09/27 08:53:32;;;;;;;;;1.00;1.00;;;;;;;;5051719;28;45336;-73
2022/09/27 08:55:58;;;;;;;;;3.33;1.00;;;;;;;;5058584;28;45382;-73
2022/09/27 08:58:27;;;;;;;;;1.67;1.00;;;;;;;;5053066;28;45428;-73
2022/09/27 09:00:54;;;;;;;;;2.67;2.67;;;;;;;;5053705;28;45434;-73
2022/09/27 09:03:21;;;;;;;;;4.33;2.00;;;;;;;;5053605;28;45240;-73
2022/09/27 09:05:55;;;;;;;;;2.00;2.00;;;;;;;;5057047;28;45439;-73
2022/09/27 09:08:41;;;;;;;;;4.67;1.33;;;;;;;;5047295;28;46366;-72
2022/09/27 09:13:57;;;;;;;;;1.00;1.00;;;;;;;;5046176;28;45264;-74
2022/09/27 09:16:28;;;;;;;;;0.00;0.00;;;;;;;;5049660;28;45126;-74
2022/09/27 09:18:56;;;;;;;;;3.33;2.00;;;;;;;;5054569;28;45614;-74
2022/09/27 09:21:38;;;;;;;;;2.00;1.00;;;;;;;;5051808;28;45292;-74
2022/09/27 09:24:11;;;;;;;;;1.00;1.00;;;;;;;;5054374;28;45264;-73
2022/09/27 09:26:57;;;;;;;;;2.00;1.00;;;;;;;;5053379;28;45366;-74
2022/09/27 09:29:54;;;;;;;;;3.33;2.00;;;;;;;;5053411;28;45430;-74
2022/09/27 09:32:52;;;;;;;;;0.67;0.67;;;;;;;;5023549;28;45420;-74
2022/09/27 09:35:20;;;;;;;;;2.00;1.33;;;;;;;;5032204;28;45329;-74
2022/09/27 09:37:52;;;;;;;;;3.00;1.00;;;;;;;;5045166;28;45569;-75
2022/09/27 09:40:17;;;;;;;;;1.00;0.00;;;;;;;;5048426;28;45613;-73
2022/09/27 09:42:56;;;;;;;;;1.00;1.00;;;;;;;;5044640;28;45205;-74
2022/09/27 09:45:21;;;;;;;;;4.67;0.00;;;;;;;;5050793;28;45376;-73
2022/09/27 09:48:05;;;;;;;;;2.67;0.67;;;;;;;;5054400;28;45326;-74
2022/09/27 09:50:38;;;;;;;;;0.00;0.00;;;;;;;;5051853;28;46473;-74
2022/09/27 09:53:10;;;;;;;;;2.00;1.33;;;;;;;;5055492;28;45303;-74
2022/09/27 09:55:37;;;;;;;;;4.33;2.00;;;;;;;;5059033;28;45553;-73
2022/09/27 09:58:21;;;;;;;;;1.00;1.00;;;;;;;;5057987;28;45433;-73
2022/09/27 10:00:47;;;;;;;;;3.00;0.00;;;;;;;;5054026;28;46154;-73
2022/09/27 10:03:12;;;;;;;;;3.00;1.00;;;;;;;;5049784;28;45537;-73
2022/09/27 10:05:40;;;;;;;;;2.00;1.00;;;;;;;;5056524;28;45194;-73
2022/09/27 10:08:06;;;;;;;;;1.00;1.00;;;;;;;;5056869;28;45472;-73
2022/09/27 10:10:32;;;;;;;;;3.00;0.67;;;;;;;;5059626;28;45366;-73
2022/09/27 10:13:00;;;;;;;;;0.00;0.00;;;;;;;;5054853;28;45350;-73
2022/09/27 10:15:27;;;;;;;;;0.00;0.00;;;;;;;;5060974;28;45347;-73
2022/09/27 10:17:55;;;;;;;;;0.67;0.67;;;;;;;;5052199;28;45358;-73
2022/09/27 10:20:41;;;;;;;;;1.00;1.00;;;;;;;;5051134;28;46194;-73
2022/09/27 10:23:19;;;;;;;;;1.00;0.00;;;;;;;;5056153;28;45322;-73
2022/09/27 10:25:54;;;;;;;;;0.33;0.33;;;;;;;;5055809;28;45337;-73
2022/09/27 10:28:35;;;;;;;;;1.00;0.00;;;;;;;;5056920;28;45427;-73
2022/09/27 10:31:02;;;;;;;;;0.67;0.67;;;;;;;;5050156;28;45521;-73
2022/09/27 10:33:29;;;;;;;;;3.00;0.00;;;;;;;;5053475;28;45726;-73
2022/09/27 10:35:54;;;;;;;;;1.00;1.00;;;;;;;;5052930;28;45383;-73
2022/09/27 10:38:33;;;;;;;;;3.00;1.00;;;;;;;;5056790;28;45279;-72
2022/09/27 10:41:22;;;;;;;;;1.00;0.00;;;;;;;;5051159;28;45498;-72
2022/09/27 10:43:47;;;;;;;;;1.00;1.00;;;;;;;;5047189;28;45424;-73
2022/09/27 10:46:18;;;;;;;;;0.00;0.00;;;;;;;;5056972;28;45237;-72
2022/09/27 10:48:43;;;;;;;;;1.00;1.00;;;;;;;;5052952;28;45288;-73
2022/09/27 10:51:21;;;;;;;;;1.00;0.00;;;;;;;;5058863;28;46139;-73
2022/09/27 10:53:47;;;;;;;;;1.00;1.00;;;;;;;;5055166;28;45508;-74
2022/09/27 10:56:23;;;;;;;;;4.00;1.00;;;;;;;;5061186;28;45306;-75
2022/09/27 10:58:49;;;;;;;;;1.00;0.00;;;;;;;;5083303;27;46705;-75
2022/09/27 11:01:14;;;;;;;;;2.00;0.33;;;;;;;;5055234;28;46224;-75
2022/09/27 11:03:50;;;;;;;;;2.00;1.00;;;;;;;;5050192;28;45424;-75
2022/09/27 11:06:18;;;;;;;;;1.00;0.67;;;;;;;;5054390;28;45312;-75
2022/09/27 11:08:47;;;;;;;;;1.00;1.00;;;;;;;;5055903;28;45425;-75
2022/09/27 11:11:12;;;;;;;;;1.33;1.00;;;;;;;;5056490;28;45467;-75
2022/09/27 11:13:38;;;;;;;;;3.00;0.00;;;;;;;;5056555;28;45284;-74
2022/09/27 11:16:22;;;;;;;;;1.00;1.00;;;;;;;;5055836;28;44699;-74
2022/09/27 11:18:49;;;;;;;;;2.67;1.00;;;;;;;;5050821;28;46896;-75
2022/09/27 11:21:33;;;;;;;;;1.00;1.00;;;;;;;;5058873;28;46737;-76
2022/09/27 11:23:59;;;;;;;;;2.00;0.33;;;;;;;;5057252;28;45410;-76
2022/09/27 11:26:34;;;;;;;;;1.00;1.00;;;;;;;;5056631;28;45338;-76
2022/09/27 11:29:15;;;;;;;;;1.67;1.00;;;;;;;;5051425;28;45301;-76
2022/09/27 11:31:43;;;;;;;;;1.00;1.00;;;;;;;;5056196;28;46144;-76
2022/09/27 11:34:08;;;;;;;;;0.00;0.00;;;;;;;;5055576;28;47137;-76
2022/09/27 11:36:52;;;;;;;;;3.00;2.00;;;;;;;;5059649;28;45369;-77
2022/09/27 11:39:17;;;;;;;;;2.00;1.00;;;;;;;;5056219;28;45549;-76
2022/09/27 11:41:49;;;;;;;;;2.67;1.33;;;;;;;;5053086;28;47232;-76
2022/09/27 11:44:26;;;;;;;;;1.67;1.67;;;;;;;;5051601;28;45274;-76
2022/09/27 11:46:59;;;;;;;;;2.33;1.00;;;;;;;;5060751;28;45443;-75
2022/09/27 11:49:50;;;;;;;;;1.00;1.00;;;;;;;;5053617;28;45232;-75
2022/09/27 11:52:28;;;;;;;;;2.00;2.00;;;;;;;;5047218;28;45449;-75
2022/09/27 11:55:09;;;;;;;;;1.00;1.00;;;;;;;;5049790;28;45248;-75
2022/09/27 11:57:40;;;;;;;;;2.00;0.00;;;;;;;;5047878;28;45379;-74
2022/09/27 12:00:16;;;;;;;;;1.67;1.67;;;;;;;;5052845;28;45734;-74
2022/09/27 12:02:44;;;;;;;;;1.00;1.00;;;;;;;;5050653;28;45366;-74
2022/09/27 12:05:12;;;;;;;;;2.00;1.00;;;;;;;;5056978;28;45407;-74
2022/09/27 12:07:38;;;;;;;;;2.00;1.00;;;;;;;;5057757;28;45277;-73
2022/09/27 12:10:08;;;;;;;;;4.00;2.00;;;;;;;;5055118;28;45213;-73
2022/09/27 12:12:35;;;;;;;;;2.00;1.33;;;;;;;;5057168;28;46135;-73
2022/09/27 12:15:04;;;;;;;;;3.67;2.00;;;;;;;;5051971;28;45269;-73
2022/09/27 12:17:33;;;;;;;;;1.67;1.67;;;;;;;;5057076;28;45155;-72
2022/09/27 12:20:01;;;;;;;;;1.67;1.67;;;;;;;;5054100;28;45413;-73
2022/09/27 12:22:31;;;;;;;;;3.00;2.00;;;;;;;;5057498;28;46149;-73
2022/09/27 12:24:56;;;;;;;;;2.00;2.00;;;;;;;;5052323;28;45411;-73
2022/09/27 12:27:31;;;;;;;;;3.00;2.00;;;;;;;;5041685;28;46233;-73
2022/09/27 12:29:57;;;;;;;;;4.67;2.00;;;;;;;;5052994;28;45384;-72
2022/09/27 12:32:43;;;;;;;;;2.33;2.33;;;;;;;;5049292;28;45510;-73
2022/09/27 12:35:18;;;;;;;;;1.00;1.00;;;;;;;;5053617;28;45339;-73
2022/09/27 12:38:04;;;;;;;;;3.00;2.00;;;;;;;;5055808;28;45502;-73
2022/09/27 12:40:35;;;;;;;;;4.00;2.00;;;;;;;;5052368;28;45524;-76
2022/09/27 12:43:07;;;;;;;;;2.67;2.33;;;;;;;;5054927;28;46510;-76
2022/09/27 12:45:40;;;;;;;;;2.00;1.00;;;;;;;;5048056;28;45395;-76
2022/09/27 12:48:11;;;;;;;;;5.67;3.00;;;;;;;;5049531;28;45336;-76
2022/09/27 12:50:42;;;;;;;;;3.00;3.00;;;;;;;;5055474;28;46110;-76
2022/09/27 12:53:10;;;;;;;;;2.00;2.00;;;;;;;;5050707;28;45355;-76
2022/09/27 12:55:45;;;;;;;;;4.00;3.00;;;;;;;;5067065;28;46387;-75
2022/09/27 12:58:16;;;;;;;;;1.67;1.67;;;;;;;;5050766;28;45544;-75
2022/09/27 13:00:50;;;;;;;;;3.67;2.00;;;;;;;;5049564;28;45250;-76
2022/09/27 13:03:34;;;;;;;;;2.00;2.00;;;;;;;;5049255;28;45399;-76
2022/09/27 13:06:10;;;;;;;;;6.00;5.00;;;;;;;;5058010;28;45330;-77
2022/09/27 13:08:39;;;;;;;;;4.33;1.33;;;;;;;;5051587;28;45297;-77
2022/09/27 13:11:22;;;;;;;;;3.67;2.00;;;;;;;;5057717;28;45307;-77
2022/09/27 13:13:48;;;;;;;;;5.33;4.33;;;;;;;;5053092;28;46336;-76
2022/09/27 13:16:13;;;;;;;;;4.33;3.00;;;;;;;;5051940;28;45158;-76
2022/09/27 13:18:50;;;;;;;;;2.67;2.67;;;;;;;;5054594;28;45411;-75
2022/09/27 13:21:34;;;;;;;;;4.33;3.33;;;;;;;;5056012;28;45446;-76
2022/09/27 13:24:00;;;;;;;;;4.00;3.00;;;;;;;;5055444;28;46205;-75
2022/09/27 13:26:31;;;;;;;;;5.00;1.33;;;;;;;;5057108;28;45454;-76
2022/09/27 13:28:58;;;;;;;;;6.67;2.00;;;;;;;;5056489;28;45382;-78
2022/09/27 13:31:41;;;;;;;;;3.00;2.00;;;;;;;;5041105;28;45251;-76
2022/09/27 13:34:26;;;;;;;;;5.00;1.00;;;;;;;;5049402;28;46074;-76
2022/09/27 13:36:52;;;;;;;;;3.33;2.67;;;;;;;;5046975;28;45207;-76
2022/09/27 13:39:18;;;;;;;;;2.00;2.00;;;;;;;;5054150;28;45250;-74
2022/09/27 13:41:44;;;;;;;;;4.00;1.00;;;;;;;;5044963;28;45170;-75
2022/09/27 13:44:24;;;;;;;;;1.33;1.33;;;;;;;;5066423;28;45328;-76
2022/09/27 13:46:55;;;;;;;;;2.33;1.00;;;;;;;;5045140;28;45331;-76
2022/09/27 13:49:25;;;;;;;;;3.00;3.00;;;;;;;;5052981;28;44765;-76
2022/09/27 13:51:54;;;;;;;;;3.00;1.67;;;;;;;;5048278;28;45460;-77
2022/09/27 13:54:40;;;;;;;;;2.00;1.33;;;;;;;;5046728;28;45411;-76
2022/09/27 13:57:25;;;;;;;;;1.00;1.00;;;;;;;;5053828;28;45430;-76
2022/09/27 13:59:53;;;;;;;;;2.00;1.00;;;;;;;;5052262;28;45279;-76
2022/09/27 14:02:23;;;;;;;;;3.67;1.00;;;;;;;;5054295;28;45538;-75
2022/09/27 14:04:50;;;;;;;;;2.33;1.00;;;;;;;;5056753;28;46310;-75
2022/09/27 14:07:17;;;;;;;;;1.67;1.67;;;;;;;;5053295;28;45269;-75
2022/09/27 14:09:44;;;;;;;;;2.00;2.00;;;;;;;;5052286;28;45355;-76
2022/09/27 14:12:11;;;;;;;;;4.00;2.00;;;;;;;;5053868;28;45327;-76
2022/09/27 14:14:37;;;;;;;;;5.00;2.00;;;;;;;;5054966;28;45501;-76
2022/09/27 14:17:06;;;;;;;;;6.33;3.00;;;;;;;;5047899;28;45249;-76
2022/09/27 14:19:31;;;;;;;;;3.00;2.00;;;;;;;;5054678;28;45430;-76
2022/09/27 14:21:56;;;;;;;;;5.00;3.67;;;;;;;;5051076;28;45281;-75
2022/09/27 14:24:27;;;;;;;;;1.33;1.33;;;;;;;;5049757;28;46460;-75
2022/09/27 14:27:09;;;;;;;;;5.00;1.67;;;;;;;;5053286;28;45421;-74
2022/09/27 14:29:39;;;;;;;;;7.33;3.33;;;;;;;;5051162;28;45450;-74
2022/09/27 14:32:08;;;;;;;;;2.67;2.67;;;;;;;;5054229;28;45240;-74
2022/09/27 14:34:33;;;;;;;;;4.00;2.33;;;;;;;;5057292;28;46426;-73
2022/09/27 14:39:42;;;;;;;;;2.00;2.00;;;;;;;;5059872;28;45448;-75
2022/09/27 14:42:21;;;;;;;;;5.33;3.00;;;;;;;;5059869;28;45267;-74
2022/09/27 14:44:47;;;;;;;;;3.33;3.33;;;;;;;;5059299;28;45386;-73
2022/09/27 14:47:23;;;;;;;;;3.00;1.00;;;;;;;;5059934;28;45220;-74
2022/09/27 14:49:50;;;;;;;;;3.33;3.33;;;;;;;;5059631;28;45454;-74
2022/09/27 14:52:26;;;;;;;;;5.00;3.33;;;;;;;;5059759;28;45368;-75
2022/09/27 14:54:58;;;;;;;;;3.33;3.33;;;;;;;;5059857;28;45725;-75
2022/09/27 14:57:25;;;;;;;;;3.67;3.00;;;;;;;;5059017;28;45403;-75
2022/09/27 14:59:51;;;;;;;;;3.00;2.00;;;;;;;;5059769;28;45617;-76
2022/09/27 15:02:21;;;;;;;;;7.33;4.00;;;;;;;;5058539;28;45490;-75
2022/09/27 15:04:47;;;;;;;;;4.00;3.00;;;;;;;;5059069;27;45300;-75
2022/09/27 15:07:14;;;;;;;;;5.33;3.00;;;;;;;;5058390;28;45293;-75